createdAt,value
2022-10-22T05:25:07.776Z,66.80
2022-10-22T05:35:09.198Z,62.20
2022-10-22T05:45:10.629Z,58.00
2022-10-22T05:55:12.130Z,56.40
2022-10-22T06:05:13.540Z,55.80
2022-10-22T06:15:14.915Z,55.20
2022-10-22T06:25:16.286Z,55.20
2022-10-22T06:35:17.683Z,55.30
2022-10-22T06:45:19.051Z,53.70
2022-10-22T06:55:20.417Z,53.60
2022-10-22T07:05:21.793Z,53.20
2022-10-22T07:15:23.230Z,54.10
2022-10-22T07:25:24.597Z,54.10
2022-10-22T07:35:25.974Z,53.00
2022-10-22T07:45:27.464Z,51.80
2022-10-22T07:55:28.852Z,51.90
2022-10-22T08:05:30.252Z,50.40
2022-10-22T08:15:31.673Z,50.50
2022-10-22T08:25:33.104Z,51.50
2022-10-22T08:35:34.481Z,56.90
2022-10-22T08:45:35.855Z,55.90
2022-10-22T08:55:37.573Z,54.50
2022-10-22T09:05:39.008Z,56.80
2022-10-22T09:15:41.667Z,48.10
2022-10-22T09:25:45.152Z,46.60
2022-10-22T09:35:46.524Z,46.60
2022-10-22T09:45:47.893Z,46.90
2022-10-22T09:55:49.490Z,46.10
2022-10-22T10:05:50.898Z,46.10
2022-10-22T10:15:52.262Z,45.20
2022-10-22T10:25:53.644Z,45.90
2022-10-22T10:35:55.053Z,46.00
2022-10-22T10:45:56.712Z,47.00
2022-10-22T10:55:58.078Z,47.40
2022-10-22T11:05:59.455Z,46.70
2022-10-22T11:16:00.855Z,46.90
2022-10-22T11:26:02.254Z,46.40
2022-10-22T11:36:03.630Z,47.20
2022-10-22T11:46:05.012Z,46.90
2022-10-22T11:56:06.379Z,46.00
2022-10-22T12:06:07.764Z,45.50
2022-10-22T12:16:12.814Z,45.40
2022-10-22T12:26:15.673Z,46.30
2022-10-22T12:36:17.063Z,45.60
2022-10-22T12:46:18.447Z,46.20
2022-10-22T12:56:19.823Z,46.00
2022-10-22T13:06:21.198Z,45.50
2022-10-22T13:16:22.612Z,45.10
2022-10-22T13:26:24.023Z,46.00
2022-10-22T13:36:25.444Z,47.10
2022-10-22T13:46:26.819Z,48.00
2022-10-22T13:56:28.192Z,47.90
2022-10-22T14:06:29.578Z,48.60
2022-10-22T14:16:30.971Z,48.90
2022-10-22T14:26:32.334Z,48.00
2022-10-22T14:36:33.711Z,48.00
2022-10-22T14:46:35.089Z,47.60
2022-10-22T15:06:38.803Z,46.50
2022-10-22T15:16:40.179Z,46.80
2022-10-22T15:26:41.549Z,46.20
2022-10-22T15:36:42.920Z,46.80
2022-10-22T15:46:44.326Z,46.40
2022-10-22T15:56:45.735Z,45.40
2022-10-22T16:06:47.108Z,46.50
2022-10-22T16:16:48.478Z,46.70
2022-10-22T16:26:49.860Z,47.20
2022-10-22T16:46:57.537Z,47.50
2022-10-22T16:56:58.919Z,48.30
2022-10-22T17:07:00.314Z,47.80
